Time;durP1;ratioP1;P1;durP2;ratioP2;P2;SDS_P1;SDS_P2;PMS_P1;PMS_P2;Temp;Humidity;BMP_temperature;BMP_pressure;BME280_temperature;BME280_humidity;BME280_pressure;Samples;Min_cycle;Max_cycle;Signal;HPM_P1;HPM_P2
2022/08/24 00:01:11;;;;;;;0.30;0.20;;;;;;;;;;6146950;23;20042;-86
2022/08/24 00:03:38;;;;;;;0.20;0.10;;;;;;;;;;6149392;23;20035;-87
2022/08/24 00:06:05;;;;;;;0.20;0.10;;;;;;;;;;6150432;22;20092;-87
2022/08/24 00:08:31;;;;;;;0.65;0.52;;;;;;;;;;6254062;22;20016;-86
2022/08/24 00:10:58;;;;;;;0.20;0.15;;;;;;;;;;6251118;22;20009;-87
2022/08/24 00:13:25;;;;;;;0.20;0.10;;;;;;;;;;6173007;23;20020;-85
2022/08/24 00:15:51;;;;;;;0.28;0.28;;;;;;;;;;6148977;23;20020;-87
2022/08/24 00:18:17;;;;;;;0.20;0.10;;;;;;;;;;6149337;23;20453;-87
2022/08/24 00:20:44;;;;;;;0.20;0.10;;;;;;;;;;6147837;23;20052;-87
2022/08/24 00:23:10;;;;;;;0.20;0.10;;;;;;;;;;6148836;23;20483;-87
2022/08/24 00:25:36;;;;;;;0.20;0.10;;;;;;;;;;6198141;23;20022;-88
2022/08/24 00:28:03;;;;;;;0.20;0.13;;;;;;;;;;6149278;23;20021;-86
2022/08/24 00:30:30;;;;;;;0.20;0.10;;;;;;;;;;6150098;23;20012;-88
2022/08/24 00:32:56;;;;;;;0.20;0.10;;;;;;;;;;6150831;23;20297;-88
2022/08/24 00:35:23;;;;;;;0.20;0.10;;;;;;;;;;6152236;23;20013;-87
2022/08/24 00:37:50;;;;;;;0.20;0.10;;;;;;;;;;6151560;23;20460;-87
2022/08/24 00:40:20;;;;;;;0.20;0.13;;;;;;;;;;6151750;23;20046;-88
2022/08/24 00:42:46;;;;;;;0.20;0.10;;;;;;;;;;6151287;23;20048;-88
2022/08/24 00:45:16;;;;;;;0.20;0.10;;;;;;;;;;6152312;23;20020;-87
2022/08/24 00:47:44;;;;;;;0.20;0.10;;;;;;;;;;6151045;23;20023;-86
2022/08/24 00:50:13;;;;;;;0.35;0.35;;;;;;;;;;6150584;23;20023;-88
2022/08/24 00:52:42;;;;;;;0.20;0.10;;;;;;;;;;6151681;23;20464;-87
2022/08/24 00:55:12;;;;;;;0.40;0.10;;;;;;;;;;6152854;23;20016;-87
2022/08/24 00:57:41;;;;;;;0.20;0.10;;;;;;;;;;6150929;23;20013;-86
2022/08/24 01:00:09;;;;;;;0.30;0.20;;;;;;;;;;6152404;23;20621;-87
2022/08/24 01:02:40;;;;;;;0.20;0.10;;;;;;;;;;6150221;23;20488;-87
2022/08/24 01:05:07;;;;;;;0.20;0.10;;;;;;;;;;6150748;22;20017;-87
2022/08/24 01:14:07;;;;;;;0.20;0.10;;;;;;;;;;6231610;23;20028;-86
2022/08/24 01:22:38;;;;;;;;;;;;;;;;;;;;;
2022/08/24 01:29:40;;;;;;;0.20;0.10;;;;;;;;;;6155322;22;20028;-86
2022/08/24 01:32:55;;;;;;;;;;;;;;;;;;;;;
2022/08/24 01:39:40;;;;;;;;;;;;;;;;;;;;;
2022/08/24 01:48:47;;;;;;;0.20;0.20;;;;;;;;;;6149293;22;20035;-86
2022/08/24 01:55:10;;;;;;;0.30;0.20;;;;;;;;;;6037948;23;20048;-88
2022/08/24 01:58:25;;;;;;;0.20;0.13;;;;;;;;;;6089209;23;20014;-86
2022/08/24 02:19:03;;;;;;;0.20;0.20;;;;;;;;;;5993693;23;20027;-87
2022/08/24 02:22:37;;;;;;;;;;;;;;;;;;;;;
2022/08/24 02:34:56;;;;;;;0.20;0.10;;;;;;;;;;6264523;22;20083;-87
2022/08/24 02:43:41;;;;;;;0.20;0.10;;;;;;;;;;6171525;23;20061;-88
2022/08/24 02:46:15;;;;;;;0.57;0.28;;;;;;;;;;6144156;23;20031;-87
2022/08/24 02:48:41;;;;;;;0.20;0.10;;;;;;;;;;6146578;23;20013;-88
2022/08/24 02:51:08;;;;;;;0.30;0.20;;;;;;;;;;6144076;23;20013;-87
2022/08/24 02:53:36;;;;;;;0.52;0.30;;;;;;;;;;6177088;23;20013;-87
2022/08/24 02:56:03;;;;;;;0.30;0.10;;;;;;;;;;6251426;22;20448;-88
2022/08/24 02:58:36;;;;;;;0.20;0.13;;;;;;;;;;6176024;23;20460;-88
2022/08/24 03:01:05;;;;;;;0.20;0.10;;;;;;;;;;6175159;23;20058;-88
2022/08/24 03:03:31;;;;;;;0.20;0.10;;;;;;;;;;6253363;22;20047;-88
2022/08/24 03:05:58;;;;;;;0.20;0.10;;;;;;;;;;6175458;23;20331;-89
2022/08/24 03:08:24;;;;;;;0.20;0.20;;;;;;;;;;6201115;23;20008;-87
2022/08/24 03:10:53;;;;;;;0.20;0.10;;;;;;;;;;6252736;22;20039;-88
2022/08/24 03:13:19;;;;;;;0.20;0.10;;;;;;;;;;6173756;23;20382;-88
2022/08/24 03:15:46;;;;;;;0.20;0.10;;;;;;;;;;6254717;22;20059;-88
2022/08/24 03:18:12;;;;;;;0.20;0.10;;;;;;;;;;6175643;23;20040;-88
2022/08/24 03:20:48;;;;;;;0.40;0.40;;;;;;;;;;6252896;22;20016;-88
2022/08/24 03:23:19;;;;;;;0.20;0.10;;;;;;;;;;6176272;23;20414;-86
2022/08/24 03:25:52;;;;;;;0.20;0.10;;;;;;;;;;6176382;23;20349;-88
2022/08/24 03:28:35;;;;;;;0.20;0.10;;;;;;;;;;6202745;23;20377;-88
2022/08/24 03:31:06;;;;;;;0.20;0.10;;;;;;;;;;6279269;22;20018;-88
2022/08/24 03:33:38;;;;;;;0.20;0.10;;;;;;;;;;6177013;23;20013;-87
2022/08/24 03:36:05;;;;;;;0.20;0.10;;;;;;;;;;6175981;23;20016;-89
2022/08/24 03:38:34;;;;;;;0.20;0.10;;;;;;;;;;6254468;22;20103;-87
2022/08/24 03:41:03;;;;;;;0.38;0.30;;;;;;;;;;6252000;22;20013;-88
2022/08/24 03:43:49;;;;;;;0.45;0.45;;;;;;;;;;6173130;23;20012;-88
2022/08/24 03:46:26;;;;;;;0.20;0.10;;;;;;;;;;6242401;22;20119;-88
2022/08/24 03:49:01;;;;;;;0.20;0.10;;;;;;;;;;6200080;23;20013;-89
2022/08/24 03:51:30;;;;;;;0.20;0.10;;;;;;;;;;6175478;23;20348;-89
2022/08/24 03:53:58;;;;;;;0.20;0.10;;;;;;;;;;6200160;23;20414;-88
2022/08/24 03:56:25;;;;;;;0.20;0.10;;;;;;;;;;6200765;23;20020;-88
2022/08/24 03:58:56;;;;;;;0.20;0.10;;;;;;;;;;6282119;22;20075;-88
2022/08/24 04:01:25;;;;;;;0.20;0.10;;;;;;;;;;6201823;23;20039;-88
2022/08/24 04:03:59;;;;;;;0.20;0.20;;;;;;;;;;6203373;23;20037;-88
2022/08/24 04:06:25;;;;;;;0.20;0.10;;;;;;;;;;6177046;23;20275;-87
2022/08/24 04:08:55;;;;;;;0.40;0.40;;;;;;;;;;6177547;23;20043;-89
2022/08/24 04:11:25;;;;;;;0.85;0.20;;;;;;;;;;6176954;23;20088;-88
2022/08/24 04:14:09;;;;;;;0.20;0.10;;;;;;;;;;6178097;23;20056;-87
2022/08/24 04:16:39;;;;;;;0.20;0.10;;;;;;;;;;6178565;23;20017;-87
2022/08/24 04:19:17;;;;;;;0.20;0.17;;;;;;;;;;6176417;23;20442;-88
2022/08/24 04:21:44;;;;;;;0.20;0.10;;;;;;;;;;6202229;23;20035;-87
2022/08/24 04:24:10;;;;;;;0.20;0.10;;;;;;;;;;6177964;23;20044;-88
2022/08/24 04:26:38;;;;;;;0.30;0.20;;;;;;;;;;6176530;23;20029;-87
2022/08/24 04:29:05;;;;;;;0.63;0.20;;;;;;;;;;6176081;23;20044;-87
2022/08/24 04:31:32;;;;;;;0.20;0.10;;;;;;;;;;6177402;23;20009;-88
2022/08/24 04:34:01;;;;;;;0.20;0.10;;;;;;;;;;6177665;23;20012;-88
2022/08/24 04:36:28;;;;;;;0.30;0.10;;;;;;;;;;6279542;22;20095;-88
2022/08/24 04:39:04;;;;;;;0.20;0.10;;;;;;;;;;6176774;23;20016;-88
2022/08/24 04:41:43;;;;;;;0.20;0.10;;;;;;;;;;6176629;23;20017;-89
2022/08/24 04:44:25;;;;;;;0.32;0.28;;;;;;;;;;6176073;23;20062;-89
2022/08/24 04:53:59;;;;;;;;;;;;;;;;;;;;;
2022/08/24 04:56:38;;;;;;;0.20;0.10;;;;;;;;;;6175234;23;20016;-89
2022/08/24 04:59:22;;;;;;;;;;;;;;;;;;;;;
2022/08/24 05:02:23;;;;;;;;;;;;;;;;;;;;;
2022/08/24 05:05:50;;;;;;;0.20;0.10;;;;;;;;;;6206502;22;20035;-88
2022/08/24 05:08:51;;;;;;;;;;;;;;;;;;;;;
2022/08/24 05:11:30;;;;;;;0.20;0.10;;;;;;;;;;6267446;22;20088;-89
2022/08/24 05:14:25;;;;;;;0.32;0.10;;;;;;;;;;6234605;22;20215;-89
2022/08/24 05:17:07;;;;;;;0.20;0.15;;;;;;;;;;6235846;22;20027;-89
2022/08/24 05:19:42;;;;;;;0.20;0.10;;;;;;;;;;6296604;22;20105;-88
2022/08/24 05:22:52;;;;;;;0.20;0.10;;;;;;;;;;6270659;22;20075;-88
2022/08/24 05:28:49;;;;;;;0.20;0.10;;;;;;;;;;6267883;22;20172;-87
2022/08/24 05:31:26;;;;;;;0.20;0.10;;;;;;;;;;6265594;22;20015;-88
2022/08/24 05:37:09;;;;;;;0.20;0.10;;;;;;;;;;6248724;22;20151;-89
2022/08/24 05:39:58;;;;;;;0.20;0.10;;;;;;;;;;6236432;22;20392;-89
2022/08/24 05:46:11;;;;;;;0.25;0.20;;;;;;;;;;6179326;23;20060;-90
2022/08/24 05:48:59;;;;;;;;;;;;;;;;;;;;;
2022/08/24 05:55:49;;;;;;;0.20;0.10;;;;;;;;;;6120365;23;20020;-89
2022/08/24 05:59:24;;;;;;;;;;;;;;;;;;;;;
2022/08/24 06:02:09;;;;;;;0.20;0.10;;;;;;;;;;6109717;23;20022;-89
2022/08/24 06:04:38;;;;;;;0.20;0.10;;;;;;;;;;6120938;23;20016;-90
2022/08/24 06:14:11;;;;;;;0.25;0.10;;;;;;;;;;6171652;22;20129;-90
2022/08/24 06:17:06;;;;;;;0.20;0.10;;;;;;;;;;6121311;23;20028;-88
2022/08/24 06:22:43;;;;;;;0.20;0.10;;;;;;;;;;6201930;23;20024;-89
2022/08/24 06:28:00;;;;;;;0.55;0.50;;;;;;;;;;6198731;23;20507;-88
2022/08/24 06:30:26;;;;;;;0.20;0.10;;;;;;;;;;6174043;23;20267;-88
2022/08/24 06:33:12;;;;;;;;;;;;;;;;;;;;;
2022/08/24 06:36:05;;;;;;;;;;;;;;;;;;;;;
2022/08/24 06:39:00;;;;;;;0.20;0.10;;;;;;;;;;6167748;23;20017;-89
2022/08/24 06:42:07;;;;;;;0.40;0.20;;;;;;;;;;6120472;23;20024;-89
2022/08/24 06:44:51;;;;;;;0.20;0.10;;;;;;;;;;6116130;23;20013;-89
2022/08/24 06:51:25;;;;;;;0.20;0.10;;;;;;;;;;6136136;23;20013;-89
2022/08/24 06:53:57;;;;;;;0.20;0.10;;;;;;;;;;6118833;23;20024;-88
2022/08/24 06:56:34;;;;;;;2.13;0.30;;;;;;;;;;6143502;23;20540;-88
2022/08/24 06:59:08;;;;;;;0.20;0.10;;;;;;;;;;6139395;23;20017;-88
2022/08/24 07:01:55;;;;;;;0.20;0.10;;;;;;;;;;6115804;23;20016;-88
2022/08/24 07:04:49;;;;;;;;;;;;;;;;;;;;;
2022/08/24 07:07:30;;;;;;;0.20;0.10;;;;;;;;;;6183263;23;20052;-88
2022/08/24 07:10:11;;;;;;;0.20;0.10;;;;;;;;;;6262624;22;20020;-89
2022/08/24 07:12:40;;;;;;;0.20;0.10;;;;;;;;;;6171646;23;20019;-88
2022/08/24 07:15:15;;;;;;;0.20;0.10;;;;;;;;;;6174588;23;20020;-88
2022/08/24 07:17:54;;;;;;;0.20;0.10;;;;;;;;;;6175134;23;20074;-88
2022/08/24 07:20:23;;;;;;;0.20;0.10;;;;;;;;;;6273325;22;20023;-88
2022/08/24 07:22:50;;;;;;;0.20;0.10;;;;;;;;;;6173984;23;20021;-88
2022/08/24 07:25:21;;;;;;;0.20;0.10;;;;;;;;;;6174316;23;20116;-88
2022/08/24 07:28:04;;;;;;;0.20;0.10;;;;;;;;;;6251759;22;20062;-88
2022/08/24 07:30:39;;;;;;;0.20;0.10;;;;;;;;;;6175507;23;20012;-89
2022/08/24 07:33:05;;;;;;;0.20;0.10;;;;;;;;;;6175480;23;20447;-89
2022/08/24 07:35:43;;;;;;;0.20;0.10;;;;;;;;;;6176176;23;20017;-89
2022/08/24 07:38:12;;;;;;;0.20;0.10;;;;;;;;;;6175402;23;20088;-89
2022/08/24 07:40:46;;;;;;;0.20;0.10;;;;;;;;;;6252738;22;20017;-88
2022/08/24 07:43:23;;;;;;;0.20;0.10;;;;;;;;;;5875521;23;7019341;-89
2022/08/24 07:45:59;;;;;;;0.20;0.10;;;;;;;;;;6179192;23;20024;-88
2022/08/24 07:48:27;;;;;;;0.20;0.10;;;;;;;;;;6179197;23;20047;-88
2022/08/24 07:50:53;;;;;;;0.20;0.10;;;;;;;;;;6180436;23;20204;-88
2022/08/24 07:53:19;;;;;;;0.20;0.10;;;;;;;;;;6258285;22;20091;-89
2022/08/24 07:55:57;;;;;;;0.20;0.10;;;;;;;;;;6255769;22;20019;-88
2022/08/24 07:58:27;;;;;;;0.20;0.10;;;;;;;;;;6176702;23;20441;-88
2022/08/24 08:00:56;;;;;;;0.20;0.10;;;;;;;;;;6175037;23;20061;-89
2022/08/24 08:03:26;;;;;;;0.20;0.10;;;;;;;;;;6176875;23;20286;-88
2022/08/24 08:06:00;;;;;;;0.20;0.10;;;;;;;;;;6200474;23;20020;-88
2022/08/24 08:08:31;;;;;;;0.20;0.10;;;;;;;;;;6176274;23;20097;-89
2022/08/24 08:11:08;;;;;;;0.20;0.10;;;;;;;;;;6174541;23;20020;-89
2022/08/24 08:13:35;;;;;;;0.20;0.10;;;;;;;;;;6174963;23;20013;-89
2022/08/24 08:16:02;;;;;;;0.20;0.10;;;;;;;;;;6176042;23;20036;-88
2022/08/24 08:18:29;;;;;;;0.20;0.10;;;;;;;;;;6254582;22;20388;-89
2022/08/24 08:20:55;;;;;;;0.20;0.10;;;;;;;;;;6175992;23;20064;-89
2022/08/24 08:26:10;;;;;;;0.20;0.10;;;;;;;;;;6200420;23;20411;-88
2022/08/24 08:28:41;;;;;;;0.20;0.13;;;;;;;;;;6252258;22;20442;-89
2022/08/24 08:31:09;;;;;;;0.20;0.10;;;;;;;;;;6175041;23;20019;-89
2022/08/24 08:33:36;;;;;;;0.20;0.10;;;;;;;;;;6255363;22;20469;-88
2022/08/24 08:36:04;;;;;;;0.20;0.10;;;;;;;;;;6255544;22;20361;-88
2022/08/24 08:38:31;;;;;;;0.20;0.10;;;;;;;;;;6176127;23;20019;-89
2022/08/24 08:41:12;;;;;;;0.20;0.10;;;;;;;;;;6175804;23;20051;-87
2022/08/24 08:43:47;;;;;;;0.20;0.10;;;;;;;;;;6178708;22;20031;-86
2022/08/24 08:46:16;;;;;;;0.20;0.10;;;;;;;;;;6174844;23;20528;-86
2022/08/24 08:49:01;;;;;;;0.20;0.10;;;;;;;;;;6176716;23;20020;-85
2022/08/24 08:51:27;;;;;;;0.20;0.10;;;;;;;;;;6176641;23;20370;-85
2022/08/24 08:54:13;;;;;;;0.20;0.10;;;;;;;;;;6201544;23;20341;-85
2022/08/24 08:56:39;;;;;;;0.20;0.10;;;;;;;;;;6176967;23;20839;-87
2022/08/24 08:59:24;;;;;;;0.20;0.10;;;;;;;;;;6176223;22;20081;-86
2022/08/24 09:02:06;;;;;;;0.20;0.10;;;;;;;;;;6176945;23;20016;-85
2022/08/24 09:04:44;;;;;;;0.20;0.10;;;;;;;;;;6308669;22;20028;-86
2022/08/24 09:07:29;;;;;;;0.20;0.10;;;;;;;;;;6177124;23;20015;-84
2022/08/24 09:10:14;;;;;;;0.20;0.10;;;;;;;;;;6177133;23;20468;-88
2022/08/24 09:12:58;;;;;;;0.20;0.10;;;;;;;;;;6202474;23;20549;-86
2022/08/24 09:15:43;;;;;;;0.20;0.10;;;;;;;;;;6203138;23;20016;-87
2022/08/24 09:18:25;;;;;;;0.20;0.10;;;;;;;;;;6177660;23;20016;-87
2022/08/24 09:21:08;;;;;;;0.20;0.10;;;;;;;;;;6178043;23;20017;-88
2022/08/24 09:24:03;;;;;;;;;;;;;;;;;;;;;
2022/08/24 09:26:44;;;;;;;0.20;0.10;;;;;;;;;;6179199;23;20402;-87
2022/08/24 09:29:29;;;;;;;0.20;0.10;;;;;;;;;;6202182;22;20023;-85
2022/08/24 09:32:34;;;;;;;0.20;0.10;;;;;;;;;;6175172;23;20013;-87
2022/08/24 09:35:22;;;;;;;0.20;0.10;;;;;;;;;;6179376;22;20357;-86
2022/08/24 09:38:08;;;;;;;0.20;0.10;;;;;;;;;;6176086;23;20023;-86
2022/08/24 09:40:59;;;;;;;0.20;0.10;;;;;;;;;;6177704;22;20460;-86
2022/08/24 09:43:52;;;;;;;0.20;0.10;;;;;;;;;;6176559;23;20486;-86
2022/08/24 09:46:18;;;;;;;0.20;0.10;;;;;;;;;;6177611;22;20091;-86
2022/08/24 09:48:56;;;;;;;0.20;0.10;;;;;;;;;;6151256;23;20032;-85
2022/08/24 09:51:41;;;;;;;0.30;0.17;;;;;;;;;;6151069;23;20496;-87
2022/08/24 09:54:26;;;;;;;0.20;0.10;;;;;;;;;;6152872;23;20021;-87
2022/08/24 09:56:55;;;;;;;0.20;0.10;;;;;;;;;;6201951;23;20009;-88
2022/08/24 09:59:22;;;;;;;0.20;0.10;;;;;;;;;;6153738;22;20024;-89
2022/08/24 10:02:07;;;;;;;0.20;0.10;;;;;;;;;;6152886;23;20021;-87
2022/08/24 10:04:45;;;;;;;0.20;0.10;;;;;;;;;;6151667;23;20020;-89
2022/08/24 10:07:19;;;;;;;0.20;0.10;;;;;;;;;;6152102;23;20056;-87
2022/08/24 10:09:51;;;;;;;0.20;0.10;;;;;;;;;;6152737;23;20047;-88
2022/08/24 10:12:29;;;;;;;0.20;0.10;;;;;;;;;;6152506;23;20448;-86
2022/08/24 10:15:05;;;;;;;0.20;0.10;;;;;;;;;;6200928;23;20012;-87
2022/08/24 10:17:37;;;;;;;0.20;0.10;;;;;;;;;;6152905;23;20065;-88
2022/08/24 10:20:09;;;;;;;0.20;0.10;;;;;;;;;;6152965;23;20017;-88
2022/08/24 10:22:50;;;;;;;0.20;0.20;;;;;;;;;;6150224;23;20017;-88
2022/08/24 10:25:19;;;;;;;0.20;0.10;;;;;;;;;;6202129;23;20017;-87
2022/08/24 10:27:46;;;;;;;0.20;0.10;;;;;;;;;;6151759;23;20372;-87
2022/08/24 10:30:31;;;;;;;0.20;0.10;;;;;;;;;;6176875;23;20062;-87
2022/08/24 10:33:17;;;;;;;0.20;0.10;;;;;;;;;;6151579;23;20459;-84
2022/08/24 10:35:58;;;;;;;0.20;0.10;;;;;;;;;;6200642;22;20083;-88
2022/08/24 10:41:31;;;;;;;0.20;0.20;;;;;;;;;;6176745;23;20244;-89
2022/08/24 10:44:07;;;;;;;0.20;0.10;;;;;;;;;;6152905;23;20068;-87
2022/08/24 10:46:33;;;;;;;0.20;0.10;;;;;;;;;;6152349;23;20100;-88
2022/08/24 10:48:59;;;;;;;0.20;0.10;;;;;;;;;;6152618;23;20453;-88
2022/08/24 10:51:48;;;;;;;0.20;0.10;;;;;;;;;;6152733;23;20468;-89
2022/08/24 10:54:15;;;;;;;0.25;0.22;;;;;;;;;;6151827;23;20048;-88
2022/08/24 10:56:48;;;;;;;0.20;0.10;;;;;;;;;;6152228;23;20363;-86
2022/08/24 10:59:14;;;;;;;0.20;0.10;;;;;;;;;;6151743;23;20016;-87
2022/08/24 11:01:58;;;;;;;0.20;0.10;;;;;;;;;;6151752;23;20065;-86
2022/08/24 11:04:29;;;;;;;0.20;0.10;;;;;;;;;;6151945;23;20027;-86
2022/08/24 11:07:09;;;;;;;0.22;0.20;;;;;;;;;;6201155;23;20039;-88
2022/08/24 11:09:47;;;;;;;0.20;0.10;;;;;;;;;;6201929;23;20023;-89
2022/08/24 11:12:33;;;;;;;0.20;0.10;;;;;;;;;;6152822;23;20517;-88
2022/08/24 11:15:05;;;;;;;0.20;0.10;;;;;;;;;;6153101;23;20008;-85
2022/08/24 11:17:33;;;;;;;0.20;0.10;;;;;;;;;;6151502;23;20456;-87
2022/08/24 11:19:59;;;;;;;0.20;0.10;;;;;;;;;;6152258;23;20028;-87
2022/08/24 11:22:26;;;;;;;0.20;0.10;;;;;;;;;;6151955;23;20099;-88
2022/08/24 11:24:54;;;;;;;0.20;0.10;;;;;;;;;;6151517;23;20019;-88
2022/08/24 11:27:21;;;;;;;0.20;0.17;;;;;;;;;;6151217;23;20017;-86
2022/08/24 11:29:50;;;;;;;0.20;0.10;;;;;;;;;;6176690;23;20498;-86
2022/08/24 11:32:27;;;;;;;0.20;0.15;;;;;;;;;;6151239;23;20012;-87
2022/08/24 11:34:54;;;;;;;0.20;0.10;;;;;;;;;;6151742;23;20008;-84
2022/08/24 11:37:30;;;;;;;0.20;0.10;;;;;;;;;;6200080;22;20016;-84
2022/08/24 11:39:56;;;;;;;0.20;0.10;;;;;;;;;;6150960;23;20016;-85
2022/08/24 11:42:22;;;;;;;0.20;0.10;;;;;;;;;;6254491;22;20145;-84
2022/08/24 11:44:48;;;;;;;0.20;0.10;;;;;;;;;;6201456;23;20017;-88
2022/08/24 11:47:26;;;;;;;0.20;0.10;;;;;;;;;;6177229;23;20530;-89
2022/08/24 11:50:02;;;;;;;0.20;0.10;;;;;;;;;;6151654;23;20013;-88
2022/08/24 11:52:44;;;;;;;0.20;0.10;;;;;;;;;;6152807;23;20028;-88
2022/08/24 11:55:27;;;;;;;0.20;0.13;;;;;;;;;;6177790;23;20013;-89
2022/08/24 11:58:13;;;;;;;0.40;0.32;;;;;;;;;;6153323;23;20020;-88
2022/08/24 12:00:45;;;;;;;0.20;0.20;;;;;;;;;;6150431;23;20101;-87
2022/08/24 12:03:17;;;;;;;0.20;0.10;;;;;;;;;;6152964;23;20082;-86
2022/08/24 12:05:53;;;;;;;0.20;0.10;;;;;;;;;;6151992;23;20012;-88
2022/08/24 12:08:19;;;;;;;0.20;0.10;;;;;;;;;;6152222;23;20051;-89
2022/08/24 12:10:45;;;;;;;0.20;0.10;;;;;;;;;;6176889;23;20029;-87
2022/08/24 12:13:15;;;;;;;0.20;0.10;;;;;;;;;;6151682;23;20537;-87
2022/08/24 12:15:59;;;;;;;0.20;0.10;;;;;;;;;;6152821;23;20476;-88
2022/08/24 12:18:36;;;;;;;0.20;0.10;;;;;;;;;;6152493;23;20009;-88
2022/08/24 12:21:02;;;;;;;0.20;0.10;;;;;;;;;;6151989;23;20424;-87
2022/08/24 12:23:37;;;;;;;0.20;0.10;;;;;;;;;;6258879;22;20012;-87
2022/08/24 12:26:09;;;;;;;0.20;0.10;;;;;;;;;;6152810;23;20020;-87
2022/08/24 12:28:42;;;;;;;0.20;0.10;;;;;;;;;;6152706;23;20020;-87
2022/08/24 12:31:20;;;;;;;0.20;0.10;;;;;;;;;;6153276;23;20532;-86
2022/08/24 12:33:54;;;;;;;0.20;0.10;;;;;;;;;;6153290;23;20020;-86
2022/08/24 12:36:25;;;;;;;0.20;0.10;;;;;;;;;;6153456;22;20021;-87
2022/08/24 12:39:00;;;;;;;0.20;0.10;;;;;;;;;;6203740;23;20035;-89
2022/08/24 12:41:28;;;;;;;0.20;0.10;;;;;;;;;;6202413;23;20016;-89
2022/08/24 12:44:11;;;;;;;0.20;0.10;;;;;;;;;;6202593;23;20059;-87
2022/08/24 12:46:37;;;;;;;0.20;0.10;;;;;;;;;;6177236;23;20305;-90
2022/08/24 12:49:24;;;;;;;0.20;0.10;;;;;;;;;;6203662;23;20013;-87
2022/08/24 12:52:00;;;;;;;0.20;0.10;;;;;;;;;;6152981;23;20017;-87
2022/08/24 12:54:47;;;;;;;0.20;0.10;;;;;;;;;;6202291;23;20008;-88
2022/08/24 12:57:21;;;;;;;0.20;0.10;;;;;;;;;;6153056;23;20017;-89
2022/08/24 12:59:52;;;;;;;0.40;0.20;;;;;;;;;;6153313;23;20013;-87
2022/08/24 13:02:18;;;;;;;0.20;0.10;;;;;;;;;;6203207;23;20016;-89
2022/08/24 13:04:51;;;;;;;0.20;0.10;;;;;;;;;;6153479;23;20069;-85
2022/08/24 13:07:20;;;;;;;0.20;0.10;;;;;;;;;;6179274;23;20009;-87
2022/08/24 13:09:48;;;;;;;0.20;0.10;;;;;;;;;;6153300;23;20016;-85
2022/08/24 13:12:33;;;;;;;0.20;0.10;;;;;;;;;;6202108;23;20017;-86
2022/08/24 13:15:18;;;;;;;0.20;0.10;;;;;;;;;;6152702;23;20088;-89
2022/08/24 13:17:44;;;;;;;0.20;0.10;;;;;;;;;;6177996;23;20357;-87
2022/08/24 13:20:33;;;;;;;0.20;0.10;;;;;;;;;;6257194;22;20017;-88
2022/08/24 13:23:06;;;;;;;0.20;0.10;;;;;;;;;;6280087;22;20077;-88
2022/08/24 13:25:50;;;;;;;0.20;0.10;;;;;;;;;;6154019;23;20016;-88
2022/08/24 13:28:22;;;;;;;0.20;0.10;;;;;;;;;;6152582;23;20398;-88
2022/08/24 13:30:48;;;;;;;;;;;;;;;;;;6152620;23;20044;-88
2022/08/24 13:33:16;;;;;;;0.20;0.10;;;;;;;;;;6177633;23;19919;-87
2022/08/24 13:35:57;;;;;;;0.20;0.10;;;;;;;;;;6177510;22;20009;-85
2022/08/24 13:38:32;;;;;;;0.20;0.10;;;;;;;;;;6152992;23;20012;-87
2022/08/24 13:41:01;;;;;;;0.20;0.10;;;;;;;;;;6153821;23;20101;-87
2022/08/24 13:43:53;;;;;;;0.20;0.10;;;;;;;;;;6152419;23;20012;-85
2022/08/24 13:46:19;;;;;;;;;;;;;;;;;;6177548;23;20449;-86
2022/08/24 13:48:52;;;;;;;0.20;0.10;;;;;;;;;;6177863;23;19947;-84
2022/08/24 13:51:36;;;;;;;0.20;0.10;;;;;;;;;;6152487;23;20016;-84
2022/08/24 13:54:06;;;;;;;0.20;0.10;;;;;;;;;;6201873;23;20097;-84
2022/08/24 13:56:37;;;;;;;0.20;0.10;;;;;;;;;;6152563;23;20024;-84
2022/08/24 13:59:07;;;;;;;0.20;0.10;;;;;;;;;;6177575;23;20013;-85
2022/08/24 14:01:43;;;;;;;0.20;0.10;;;;;;;;;;6202077;23;20028;-84
2022/08/24 14:04:12;;;;;;;0.20;0.10;;;;;;;;;;6153148;23;20403;-85
2022/08/24 14:06:57;;;;;;;0.20;0.10;;;;;;;;;;6202798;23;20027;-85
2022/08/24 14:09:50;;;;;;;0.20;0.10;;;;;;;;;;6151487;23;20449;-84
2022/08/24 14:12:32;;;;;;;0.22;0.13;;;;;;;;;;6177687;23;20444;-84
2022/08/24 14:14:58;;;;;;;0.20;0.10;;;;;;;;;;6150637;23;20009;-83
2022/08/24 14:20:11;;;;;;;0.20;0.10;;;;;;;;;;6178012;23;20020;-87
2022/08/24 14:22:59;;;;;;;0.20;0.10;;;;;;;;;;6152528;23;20497;-87
2022/08/24 14:25:32;;;;;;;0.20;0.10;;;;;;;;;;6152199;22;20021;-84
2022/08/24 14:27:58;;;;;;;0.20;0.10;;;;;;;;;;6150619;23;20016;-85
2022/08/24 14:30:24;;;;;;;0.20;0.10;;;;;;;;;;6202300;23;20245;-86
2022/08/24 14:32:59;;;;;;;0.20;0.10;;;;;;;;;;6201973;23;20009;-85
2022/08/24 14:35:26;;;;;;;0.20;0.10;;;;;;;;;;6150728;22;20012;-84
2022/08/24 14:38:00;;;;;;;0.20;0.10;;;;;;;;;;6153614;23;20461;-83
2022/08/24 14:40:31;;;;;;;0.20;0.10;;;;;;;;;;6153038;23;20052;-84
2022/08/24 14:42:59;;;;;;;0.20;0.10;;;;;;;;;;6202451;23;20024;-84
2022/08/24 14:45:40;;;;;;;0.20;0.20;;;;;;;;;;6177767;23;20027;-84
2022/08/24 14:48:20;;;;;;;0.20;0.10;;;;;;;;;;6152151;23;20035;-84
2022/08/24 14:50:55;;;;;;;0.20;0.10;;;;;;;;;;6152209;23;20302;-86
2022/08/24 14:53:28;;;;;;;0.20;0.10;;;;;;;;;;6152354;23;20095;-84
2022/08/24 14:56:09;;;;;;;0.20;0.10;;;;;;;;;;6152694;23;20021;-85
2022/08/24 14:58:49;;;;;;;0.20;0.10;;;;;;;;;;6153833;23;20034;-86
2022/08/24 15:01:18;;;;;;;0.20;0.10;;;;;;;;;;6177184;23;20055;-84
2022/08/24 15:04:01;;;;;;;0.20;0.10;;;;;;;;;;6176929;23;20357;-87
2022/08/24 15:06:37;;;;;;;0.20;0.10;;;;;;;;;;6152701;23;20013;-85
2022/08/24 15:09:06;;;;;;;0.20;0.10;;;;;;;;;;6177118;22;20021;-84
2022/08/24 15:11:35;;;;;;;0.20;0.10;;;;;;;;;;6152369;23;20016;-85
2022/08/24 15:14:03;;;;;;;0.20;0.10;;;;;;;;;;6152502;23;20459;-87
2022/08/24 15:16:50;;;;;;;0.20;0.10;;;;;;;;;;6152167;23;20021;-85
2022/08/24 15:19:25;;;;;;;0.20;0.10;;;;;;;;;;6153134;23;20017;-85
2022/08/24 15:21:55;;;;;;;0.20;0.10;;;;;;;;;;6153201;23;20349;-84
2022/08/24 15:24:34;;;;;;;0.20;0.10;;;;;;;;;;6152458;23;20027;-84
2022/08/24 15:27:14;;;;;;;0.20;0.10;;;;;;;;;;6152841;23;20220;-87
2022/08/24 15:29:49;;;;;;;0.20;0.10;;;;;;;;;;6152074;23;20051;-86
2022/08/24 15:32:15;;;;;;;0.20;0.13;;;;;;;;;;6151775;23;20009;-86
2022/08/24 15:34:42;;;;;;;0.20;0.10;;;;;;;;;;6155243;23;20008;-85
2022/08/24 15:37:25;;;;;;;0.20;0.10;;;;;;;;;;6152451;22;20481;-90
2022/08/24 15:40:18;;;;;;;0.20;0.10;;;;;;;;;;6179257;23;20021;-90
2022/08/24 15:46:11;;;;;;;0.20;0.10;;;;;;;;;;6235331;22;20023;-90
2022/08/24 15:49:19;;;;;;;0.20;0.10;;;;;;;;;;6249695;22;20015;-89
2022/08/24 15:55:06;;;;;;;0.20;0.10;;;;;;;;;;6136968;23;20379;-90
2022/08/24 16:04:50;;;;;;;0.20;0.10;;;;;;;;;;6160064;23;20025;-89
2022/08/24 16:07:32;;;;;;;0.20;0.10;;;;;;;;;;6194759;23;20071;-88
2022/08/24 16:10:13;;;;;;;;;;;;;;;;;;6218964;23;20110;-86
2022/08/24 16:12:42;;;;;;;0.20;0.10;;;;;;;;;;6215710;23;20253;-88
2022/08/24 16:15:28;;;;;;;0.20;0.10;;;;;;;;;;6191893;23;20012;-91
2022/08/24 16:18:12;;;;;;;0.20;0.10;;;;;;;;;;6277376;22;20482;-87
2022/08/24 16:20:50;;;;;;;1.23;0.20;;;;;;;;;;6267052;22;20015;-88
2022/08/24 16:23:31;;;;;;;0.20;0.10;;;;;;;;;;6302985;22;20011;-89
2022/08/24 16:26:16;;;;;;;0.20;0.10;;;;;;;;;;6251922;22;20351;-88
2022/08/24 16:28:52;;;;;;;;;;;;;;;;;;;;;
2022/08/24 16:31:40;;;;;;;0.20;0.10;;;;;;;;;;6207220;23;20030;-88
2022/08/24 16:34:32;;;;;;;0.20;0.10;;;;;;;;;;6181721;23;20073;-87
2022/08/24 16:37:02;;;;;;;0.20;0.10;;;;;;;;;;6147937;23;20089;-88
2022/08/24 16:39:45;;;;;;;0.20;0.10;;;;;;;;;;6164064;22;20083;-89
2022/08/24 16:42:14;;;;;;;0.30;0.15;;;;;;;;;;6206300;23;20368;-87
2022/08/24 16:44:41;;;;;;;0.30;0.20;;;;;;;;;;6207743;23;20012;-88
2022/08/24 16:47:11;;;;;;;0.20;0.10;;;;;;;;;;6206763;23;20051;-89
2022/08/24 16:49:40;;;;;;;0.20;0.10;;;;;;;;;;6182342;23;20087;-89
2022/08/24 16:52:07;;;;;;;0.20;0.10;;;;;;;;;;6181051;23;20017;-87
2022/08/24 16:54:33;;;;;;;0.20;0.10;;;;;;;;;;6207296;23;20138;-88
2022/08/24 16:57:07;;;;;;;0.20;0.10;;;;;;;;;;6207342;22;20120;-88
2022/08/24 16:59:37;;;;;;;0.20;0.10;;;;;;;;;;6207241;23;20341;-88
2022/08/24 17:02:03;;;;;;;0.20;0.10;;;;;;;;;;6133088;22;20059;-91
2022/08/24 17:04:32;;;;;;;0.20;0.10;;;;;;;;;;6205398;22;20047;-88
2022/08/24 17:07:02;;;;;;;0.20;0.10;;;;;;;;;;6155604;23;20068;-89
2022/08/24 17:09:30;;;;;;;0.20;0.10;;;;;;;;;;6204721;23;20051;-87
2022/08/24 17:12:16;;;;;;;0.20;0.10;;;;;;;;;;6177157;23;20464;-88
2022/08/24 17:14:43;;;;;;;0.20;0.10;;;;;;;;;;6159645;22;20017;-88
2022/08/24 17:17:13;;;;;;;0.20;0.10;;;;;;;;;;6179194;23;20384;-88
2022/08/24 17:19:49;;;;;;;0.20;0.10;;;;;;;;;;6205077;23;20461;-87
2022/08/24 17:22:16;;;;;;;0.20;0.10;;;;;;;;;;6180485;23;20448;-88
2022/08/24 17:24:42;;;;;;;0.20;0.10;;;;;;;;;;6205147;22;20020;-88
2022/08/24 17:27:08;;;;;;;0.20;0.10;;;;;;;;;;6204286;23;20469;-88
2022/08/24 17:30:04;;;;;;;0.20;0.10;;;;;;;;;;6207272;22;20419;-87
2022/08/24 17:32:35;;;;;;;0.20;0.10;;;;;;;;;;6206035;23;20040;-87
2022/08/24 17:35:06;;;;;;;0.20;0.10;;;;;;;;;;6179436;23;20056;-89
2022/08/24 17:37:38;;;;;;;0.20;0.10;;;;;;;;;;6136164;22;20066;-89
2022/08/24 17:40:08;;;;;;;0.20;0.10;;;;;;;;;;6181310;22;20028;-88
2022/08/24 17:42:34;;;;;;;0.30;0.20;;;;;;;;;;6180904;23;20020;-87
2022/08/24 17:45:00;;;;;;;0.20;0.10;;;;;;;;;;6180014;23;20013;-87
2022/08/24 17:47:26;;;;;;;0.20;0.10;;;;;;;;;;6205720;23;20064;-87
2022/08/24 17:50:00;;;;;;;0.20;0.13;;;;;;;;;;6132437;22;20016;-88
2022/08/24 17:52:31;;;;;;;0.20;0.10;;;;;;;;;;6132322;22;20406;-87